Time;durP1;ratioP1;P1;durP2;ratioP2;P2;SDS_P1;SDS_P2;PMS_P1;PMS_P2;Temp;Humidity;BMP_temperature;BMP_pressure;BME280_temperature;BME280_humidity;BME280_pressure;Samples;Min_cycle;Max_cycle;Signal;HPM_P1;HPM_P2
2023/10/21 00:01:07;;;;;;;5.35;1.50;;;;;;;20.82;54.72;97759.91;4467729;32;34390;-78
2023/10/21 00:03:37;;;;;;;5.22;2.15;;;;;;;20.85;54.82;97758.81;4462894;32;32958;-75
2023/10/21 00:06:07;;;;;;;5.07;2.30;;;;;;;20.80;54.99;97743.44;4471769;32;33955;-76
2023/10/21 00:08:39;;;;;;;12.20;2.70;;;;;;;20.75;54.96;97748.22;4476085;32;34150;-76
2023/10/21 00:11:13;;;;;;;3.30;1.35;;;;;;;20.67;55.24;97762.06;4471960;32;33652;-77
2023/10/21 00:13:42;;;;;;;5.62;2.50;;;;;;;20.84;54.90;97762.44;4476807;32;32990;-78
2023/10/21 00:16:12;;;;;;;8.43;1.95;;;;;;;20.75;54.36;97760.59;4477762;32;33698;-77
2023/10/21 00:18:40;;;;;;;5.40;1.70;;;;;;;20.87;53.92;97752.44;4468678;32;34677;-79
2023/10/21 00:21:15;;;;;;;4.45;1.98;;;;;;;20.93;53.43;97761.66;4476051;32;34812;-79
2023/10/21 00:23:45;;;;;;;4.70;1.50;;;;;;;21.02;53.45;97771.41;4475402;32;33239;-76
2023/10/21 00:26:16;;;;;;;4.00;1.45;;;;;;;21.08;53.36;97765.56;4472272;32;33870;-77
2023/10/21 00:28:47;;;;;;;3.72;1.55;;;;;;;21.03;53.06;97761.69;4473511;32;34133;-79
2023/10/21 00:31:16;;;;;;;3.08;1.85;;;;;;;21.18;52.80;97754.22;4468593;32;34898;-76
2023/10/21 00:33:46;;;;;;;7.05;2.53;;;;;;;21.15;52.89;97757.97;4466513;32;32632;-77
2023/10/21 00:36:19;;;;;;;3.87;1.50;;;;;;;21.24;52.82;97759.81;4472958;32;33570;-77
2023/10/21 00:38:49;;;;;;;4.85;1.67;;;;;;;21.19;52.97;97758.53;4464333;32;34529;-79
2023/10/21 00:41:22;;;;;;;4.78;2.28;;;;;;;21.19;52.95;97756.75;4466401;32;32901;-77
2023/10/21 00:43:51;;;;;;;2.17;1.17;;;;;;;20.99;53.54;97755.81;4469908;32;33644;-78
2023/10/21 00:46:26;;;;;;;4.05;2.08;;;;;;;21.06;53.38;97778.06;4466420;31;33978;-79
2023/10/21 00:48:55;;;;;;;3.20;1.42;;;;;;;21.02;53.67;97776.69;4475513;32;33757;-78
2023/10/21 00:51:31;;;;;;;7.22;1.87;;;;;;;21.10;53.51;97776.00;4464573;32;34554;-76
2023/10/21 00:54:08;;;;;;;3.72;1.87;;;;;;;21.20;53.07;97779.50;4477537;32;33400;-76
2023/10/21 00:56:37;;;;;;;7.75;1.95;;;;;;;21.13;53.20;97777.53;4467543;32;33566;-77
2023/10/21 00:59:10;;;;;;;5.20;1.83;;;;;;;21.13;53.20;97783.63;4466545;32;34768;-76
2023/10/21 01:01:39;;;;;;;6.60;1.83;;;;;;;20.98;53.79;97790.25;4465841;32;33557;-75
2023/10/21 01:04:10;;;;;;;6.47;2.15;;;;;;;21.04;53.66;97793.16;4464043;32;33394;-75
2023/10/21 01:06:43;;;;;;;6.20;1.65;;;;;;;21.12;53.56;97795.16;4472539;32;33370;-76
2023/10/21 01:09:35;;;;;;;2.28;1.60;;;;;;;21.05;53.81;97796.66;4471413;32;34771;-78
2023/10/21 01:12:05;;;;;;;9.70;2.45;;;;;;;20.97;54.03;97797.31;4474472;32;33904;-78
2023/10/21 01:14:35;;;;;;;8.90;1.52;;;;;;;20.86;54.41;97797.41;4462650;32;33692;-76
2023/10/21 01:17:04;;;;;;;5.47;1.75;;;;;;;21.04;54.14;97794.97;4473270;32;34739;-76
2023/10/21 01:19:35;;;;;;;8.00;2.70;;;;;;;20.97;54.42;97791.19;4473369;32;34943;-75
2023/10/21 01:22:04;;;;;;;5.57;3.10;;;;;;;20.99;54.25;97784.00;4468829;32;33762;-75
2023/10/21 01:24:40;;;;;;;10.80;1.80;;;;;;;21.07;53.95;97792.09;4473663;32;33362;-76
2023/10/21 01:27:09;;;;;;;6.03;1.50;;;;;;;20.93;53.59;97790.63;4476853;32;34566;-79
2023/10/21 01:29:39;;;;;;;5.37;1.90;;;;;;;21.13;53.45;97793.34;4474620;32;33699;-76
2023/10/21 01:32:08;;;;;;;10.07;2.53;;;;;;;21.01;53.46;97805.78;4477296;32;34470;-77
2023/10/21 01:34:43;;;;;;;3.80;1.52;;;;;;;21.07;53.44;97798.19;4470603;32;34005;-75
2023/10/21 01:37:12;;;;;;;3.60;1.65;;;;;;;21.03;53.33;97803.88;4466214;32;33571;-77
2023/10/21 01:39:42;;;;;;;4.90;1.75;;;;;;;20.99;53.40;97802.44;4469303;32;33896;-75
2023/10/21 01:42:11;;;;;;;4.10;1.83;;;;;;;21.03;53.39;97809.12;4481436;32;34840;-75
2023/10/21 01:44:43;;;;;;;3.45;1.55;;;;;;;20.94;53.52;97802.00;4475495;32;33487;-75
2023/10/21 01:47:11;;;;;;;2.62;1.42;;;;;;;21.10;52.77;97786.53;4477279;32;33445;-78
2023/10/21 01:49:47;;;;;;;11.32;2.08;;;;;;;21.23;52.62;97794.22;4454466;32;34613;-75
2023/10/21 01:52:16;;;;;;;3.40;1.60;;;;;;;21.17;52.64;97789.50;4459973;32;34470;-76
2023/10/21 01:54:48;;;;;;;4.25;1.58;;;;;;;21.14;52.76;97797.66;4479824;32;33745;-76
2023/10/21 01:57:17;;;;;;;2.47;1.30;;;;;;;21.14;52.94;97811.66;4477191;32;33752;-76
2023/10/21 01:59:49;;;;;;;3.05;1.15;;;;;;;21.18;52.54;97810.44;4476158;32;33699;-78
2023/10/21 02:02:18;;;;;;;6.07;2.08;;;;;;;21.25;52.34;97808.94;4477193;32;33745;-80
2023/10/21 02:04:51;;;;;;;2.37;1.23;;;;;;;21.23;52.75;97808.22;4484140;32;33172;-76
2023/10/21 02:07:20;;;;;;;4.68;1.37;;;;;;;21.18;52.86;97822.78;4459394;32;33810;-76
2023/10/21 02:09:50;;;;;;;2.03;1.30;;;;;;;21.15;53.00;97826.53;4470251;32;34376;-76
2023/10/21 02:12:19;;;;;;;7.67;1.87;;;;;;;21.19;52.80;97837.63;4468346;32;34569;-77
2023/10/21 02:14:48;;;;;;;6.03;1.80;;;;;;;21.15;53.05;97841.53;4471121;32;33562;-78
2023/10/21 02:17:18;;;;;;;3.60;1.52;;;;;;;21.23;52.41;97839.88;4477675;32;34554;-76
2023/10/21 02:19:56;;;;;;;3.58;1.42;;;;;;;21.19;52.67;97835.00;4479064;32;33657;-77
2023/10/21 02:22:25;;;;;;;4.20;1.75;;;;;;;21.27;52.14;97851.00;4467484;32;34238;-77
2023/10/21 02:24:55;;;;;;;6.72;1.80;;;;;;;21.21;52.30;97849.72;4476855;32;32996;-78
2023/10/21 02:27:24;;;;;;;3.62;1.52;;;;;;;21.31;51.75;97865.59;4473824;32;32834;-79
2023/10/21 02:29:58;;;;;;;5.45;1.37;;;;;;;21.25;52.19;97880.16;4472356;32;33961;-78
2023/10/21 02:32:27;;;;;;;5.45;2.53;;;;;;;21.34;52.25;97872.44;4467547;32;32264;-78
2023/10/21 02:34:59;;;;;;;4.07;1.70;;;;;;;21.31;52.25;97868.22;4467170;32;33325;-77
2023/10/21 02:37:28;;;;;;;4.90;1.50;;;;;;;21.34;52.36;97875.88;4468684;32;34428;-76
2023/10/21 02:40:00;;;;;;;6.60;2.62;;;;;;;21.31;52.10;97863.81;4474335;32;34642;-76
2023/10/21 02:42:28;;;;;;;5.65;2.30;;;;;;;21.30;52.45;97858.66;4473292;32;33958;-78
2023/10/21 02:45:01;;;;;;;6.70;1.20;;;;;;;21.31;52.64;97861.16;4467404;32;33059;-76
2023/10/21 02:47:34;;;;;;;4.93;1.17;;;;;;;21.34;52.26;97867.97;4476498;32;33868;-77
2023/10/21 02:50:08;;;;;;;3.67;1.52;;;;;;;21.33;52.34;97866.28;4476766;32;33801;-79
2023/10/21 02:52:55;;;;;;;3.78;1.67;;;;;;;21.48;51.78;97848.31;4482992;32;33838;-76
2023/10/21 02:55:27;;;;;;;5.82;1.58;;;;;;;21.57;51.71;97863.34;4468861;32;33797;-79
2023/10/21 02:57:56;;;;;;;1.98;1.58;;;;;;;21.79;51.57;97872.84;4461360;32;33505;-79
2023/10/21 03:00:29;;;;;;;4.20;1.98;;;;;;;21.67;51.72;97861.59;4463622;32;34042;-79
2023/10/21 03:02:57;;;;;;;5.05;2.10;;;;;;;21.70;51.73;97861.31;4475548;32;33817;-76
2023/10/21 03:05:30;;;;;;;4.15;1.65;;;;;;;21.86;51.18;97870.50;4471635;32;33802;-79
2023/10/21 03:07:58;;;;;;;7.95;2.67;;;;;;;21.77;51.52;97873.97;4477129;32;34431;-76
2023/10/21 03:10:32;;;;;;;5.68;2.08;;;;;;;21.64;51.91;97882.13;4469966;32;34729;-77
2023/10/21 03:13:00;;;;;;;5.35;1.70;;;;;;;21.58;52.08;97888.78;4470721;32;33549;-77
2023/10/21 03:15:34;;;;;;;3.15;1.50;;;;;;;21.52;52.51;97889.31;4472908;32;34055;-77
2023/10/21 03:18:03;;;;;;;5.30;2.12;;;;;;;21.48;52.74;97887.91;4470059;32;34655;-77
2023/10/21 03:20:35;;;;;;;6.10;1.98;;;;;;;21.52;52.71;97892.78;4462277;32;34876;-78
2023/10/21 03:23:04;;;;;;;10.52;1.83;;;;;;;21.58;52.37;97901.16;4462580;32;34606;-77
2023/10/21 03:25:34;;;;;;;8.52;1.50;;;;;;;21.45;52.55;97891.63;4463110;32;32999;-77
2023/10/21 03:28:04;;;;;;;2.60;1.92;;;;;;;21.46;52.28;97882.78;4462063;32;34037;-76
2023/10/21 03:30:37;;;;;;;5.13;1.77;;;;;;;21.52;52.21;97889.31;4476491;32;34515;-79
2023/10/21 03:33:05;;;;;;;4.68;1.60;;;;;;;21.35;52.82;97888.09;4466525;32;33670;-77
2023/10/21 03:35:37;;;;;;;3.03;1.40;;;;;;;21.42;52.78;97897.19;4475899;32;33849;-76
2023/10/21 03:38:06;;;;;;;3.12;1.45;;;;;;;21.60;52.72;97897.41;4483654;32;33596;-79
2023/10/21 03:40:39;;;;;;;2.47;1.58;;;;;;;21.50;52.75;97893.88;4477707;32;33796;-76
2023/10/21 03:43:08;;;;;;;6.57;1.33;;;;;;;21.57;52.47;97891.56;4477413;32;34228;-76
2023/10/21 03:45:40;;;;;;;6.45;2.70;;;;;;;21.56;52.59;97895.16;4474914;32;34138;-75
2023/10/21 03:48:09;;;;;;;2.75;1.58;;;;;;;21.66;52.47;97909.22;4461019;32;33487;-77
2023/10/21 03:50:44;;;;;;;3.17;1.40;;;;;;;21.61;52.55;97906.97;4478385;32;34491;-77
2023/10/21 03:53:14;;;;;;;4.90;2.33;;;;;;;21.55;52.65;97906.69;4457181;32;33454;-78
2023/10/21 03:55:44;;;;;;;4.53;1.12;;;;;;;21.42;53.59;97925.38;4466711;32;35442;-79
2023/10/21 03:58:13;;;;;;;3.87;1.67;;;;;;;21.38;53.38;97934.47;4477226;31;34398;-76
2023/10/21 04:00:45;;;;;;;2.35;1.27;;;;;;;21.62;52.54;97948.22;4468694;32;33922;-77
2023/10/21 04:03:15;;;;;;;5.15;1.23;;;;;;;21.63;52.30;97947.28;4467235;32;33907;-76
2023/10/21 04:05:47;;;;;;;2.85;1.17;;;;;;;21.76;52.27;97951.50;4468043;32;34906;-76
2023/10/21 04:08:16;;;;;;;3.40;1.15;;;;;;;21.69;52.36;97959.94;4469090;32;33622;-79
2023/10/21 04:10:48;;;;;;;1.65;1.15;;;;;;;21.68;52.31;97971.47;4474390;32;35382;-76
2023/10/21 04:13:17;;;;;;;4.15;1.85;;;;;;;21.48;53.07;97962.62;4466318;32;34457;-76
2023/10/21 04:15:49;;;;;;;2.45;1.15;;;;;;;21.50;53.31;97963.34;4465353;32;33885;-77
2023/10/21 04:18:18;;;;;;;2.62;1.00;;;;;;;21.38;54.49;97966.13;4476989;32;33423;-76
2023/10/21 04:20:51;;;;;;;4.65;1.55;;;;;;;21.48;54.73;97967.03;4473681;32;33624;-77
2023/10/21 04:23:20;;;;;;;1.77;1.05;;;;;;;21.53;55.03;97972.78;4478231;32;33474;-78
2023/10/21 04:25:53;;;;;;;4.20;1.33;;;;;;;21.57;56.39;97982.09;4475943;32;33706;-78
2023/10/21 04:28:23;;;;;;;5.75;2.30;;;;;;;21.47;57.92;97984.69;4462773;32;34303;-76
2023/10/21 04:30:53;;;;;;;5.65;1.12;;;;;;;21.46;58.65;97984.84;4465843;32;33613;-77
2023/10/21 04:33:22;;;;;;;3.55;1.52;;;;;;;21.58;58.55;97989.06;4473527;32;33839;-75
2023/10/21 04:35:54;;;;;;;2.53;1.37;;;;;;;21.48;59.03;97989.00;4478330;32;33251;-77
2023/10/21 04:38:23;;;;;;;3.80;1.25;;;;;;;21.43;60.06;97998.25;4466208;32;33891;-76
2023/10/21 04:40:55;;;;;;;4.37;1.15;;;;;;;21.30;60.78;97996.63;4475631;32;33739;-76
2023/10/21 04:43:24;;;;;;;2.70;1.83;;;;;;;21.04;62.46;98001.44;4462825;32;33850;-76
2023/10/21 04:45:55;;;;;;;4.62;1.42;;;;;;;21.04;62.48;98021.72;4478154;32;34117;-77
2023/10/21 04:48:24;;;;;;;2.92;1.27;;;;;;;21.03;62.92;98014.78;4468090;32;35593;-75
2023/10/21 04:50:59;;;;;;;5.30;0.88;;;;;;;20.80;63.86;98025.41;4463835;32;79411;-76
2023/10/21 04:53:27;;;;;;;1.75;0.75;;;;;;;20.92;63.75;98038.53;4461086;32;33610;-78
2023/10/21 04:56:02;;;;;;;1.98;0.80;;;;;;;20.89;64.29;98045.72;4470864;32;34047;-79
2023/10/21 04:58:33;;;;;;;6.87;1.62;;;;;;;20.96;64.91;98055.78;4479119;32;33418;-76
2023/10/21 05:01:11;;;;;;;1.40;0.90;;;;;;;20.85;65.95;98065.41;4463836;32;34673;-76
2023/10/21 05:03:43;;;;;;;2.87;1.05;;;;;;;20.43;68.52;98070.50;4474325;32;33444;-79
2023/10/21 05:06:12;;;;;;;6.47;1.33;;;;;;;20.56;68.86;98064.28;4464009;32;33113;-76
2023/10/21 05:08:45;;;;;;;3.17;1.52;;;;;;;20.08;71.86;98064.53;4476227;32;33709;-76
2023/10/21 05:11:16;;;;;;;1.70;0.85;;;;;;;20.41;70.87;98067.13;4471640;32;33606;-78
2023/10/21 05:13:47;;;;;;;4.18;1.17;;;;;;;20.29;71.84;98059.38;4470294;32;32824;-76
2023/10/21 05:16:16;;;;;;;5.50;1.00;;;;;;;20.01;73.19;98045.75;4476777;32;34553;-77
2023/10/21 05:18:49;;;;;;;1.87;0.98;;;;;;;20.21;72.61;98039.75;4477720;32;34556;-76
2023/10/21 05:21:18;;;;;;;1.48;0.73;;;;;;;20.15;72.97;98028.88;4476096;32;34703;-74
2023/10/21 05:23:47;;;;;;;2.17;0.90;;;;;;;20.07;73.43;98034.75;4481825;32;34584;-76
2023/10/21 05:26:18;;;;;;;3.17;0.82;;;;;;;19.95;74.30;98038.34;4471284;32;33724;-77
2023/10/21 05:28:50;;;;;;;3.12;1.00;;;;;;;19.78;75.09;98031.75;4476415;31;33578;-75
2023/10/21 05:31:19;;;;;;;4.80;1.27;;;;;;;19.87;74.54;98017.06;4464868;32;33664;-76
2023/10/21 05:33:56;;;;;;;5.97;1.02;;;;;;;19.88;74.45;98014.28;4472062;32;33766;-78
2023/10/21 05:36:25;;;;;;;1.08;0.70;;;;;;;19.98;74.21;98027.56;4468678;32;33637;-75
2023/10/21 05:38:58;;;;;;;4.32;0.90;;;;;;;19.94;74.18;98028.78;4476818;32;33513;-77
2023/10/21 05:41:28;;;;;;;3.00;0.93;;;;;;;19.98;73.60;98027.56;4465375;32;33578;-75
2023/10/21 05:44:05;;;;;;;2.78;1.62;;;;;;;19.99;73.71;98027.44;4465858;32;34147;-78
2023/10/21 05:46:37;;;;;;;1.27;0.70;;;;;;;20.01;73.59;98029.97;4472111;32;33278;-76
2023/10/21 05:49:06;;;;;;;2.08;1.65;;;;;;;20.11;73.14;98033.56;4475248;32;34580;-78
2023/10/21 05:51:35;;;;;;;1.45;0.80;;;;;;;20.02;73.33;98047.44;4465582;32;34007;-77
2023/10/21 05:54:07;;;;;;;1.87;1.08;;;;;;;20.02;73.54;98064.06;4464501;32;33947;-76
2023/10/21 05:56:39;;;;;;;1.45;0.73;;;;;;;20.03;73.37;98071.00;4468767;32;34072;-76
2023/10/21 05:59:12;;;;;;;1.55;0.75;;;;;;;19.89;74.05;98071.25;4466596;32;33762;-77
2023/10/21 06:01:42;;;;;;;1.90;1.00;;;;;;;19.93;74.04;98085.81;4461933;32;33561;-78
2023/10/21 06:04:11;;;;;;;3.75;1.48;;;;;;;19.95;73.91;98098.88;4467302;32;33484;-77
2023/10/21 06:06:44;;;;;;;1.73;0.65;;;;;;;20.13;73.14;98101.88;4467496;32;32579;-75
2023/10/21 06:09:15;;;;;;;0.35;0.35;;;;;;;20.02;73.53;98127.22;4470610;32;33880;-75
2023/10/21 06:11:45;;;;;;;0.98;0.60;;;;;;;19.97;73.71;98139.06;4470109;32;34381;-76
2023/10/21 06:14:14;;;;;;;1.87;0.80;;;;;;;19.84;74.29;98139.19;4478510;32;33105;-76
2023/10/21 06:16:46;;;;;;;0.77;0.52;;;;;;;19.92;73.56;98144.69;4460267;32;33305;-79
2023/10/21 06:19:16;;;;;;;1.05;0.75;;;;;;;19.94;73.54;98163.84;4477736;32;33571;-78
2023/10/21 06:21:48;;;;;;;2.33;0.88;;;;;;;19.91;73.62;98158.81;4481655;32;34895;-78
2023/10/21 06:24:17;;;;;;;1.10;0.52;;;;;;;19.71;74.36;98141.87;4468330;32;33726;-76
2023/10/21 06:26:47;;;;;;;1.62;1.02;;;;;;;19.75;74.23;98160.94;4466958;32;33221;-76
2023/10/21 06:29:16;;;;;;;1.73;0.80;;;;;;;19.78;74.06;98176.47;4472083;32;33186;-75
2023/10/21 06:31:46;;;;;;;2.65;1.48;;;;;;;19.75;74.01;98174.06;4465939;32;33730;-76
2023/10/21 06:34:16;;;;;;;2.35;0.98;;;;;;;19.61;74.53;98169.81;4459865;32;33643;-77
2023/10/21 06:36:52;;;;;;;4.75;1.25;;;;;;;19.73;73.73;98183.88;4461822;32;34527;-76
2023/10/21 06:39:20;;;;;;;1.25;1.15;;;;;;;19.75;73.44;98193.34;4466634;32;33309;-78
2023/10/21 06:41:52;;;;;;;8.00;2.10;;;;;;;19.74;73.69;98198.69;4460549;32;34201;-76
2023/10/21 06:44:23;;;;;;;0.98;0.75;;;;;;;19.61;74.16;98204.00;4466889;32;33748;-76
2023/10/21 06:46:52;;;;;;;5.72;1.70;;;;;;;19.60;74.31;98197.09;4460365;32;33148;-77
2023/10/21 06:49:21;;;;;;;4.03;1.20;;;;;;;19.76;73.92;98207.31;4478699;32;33245;-76
2023/10/21 06:51:54;;;;;;;2.03;0.68;;;;;;;19.79;73.99;98199.22;4477843;32;33868;-78
2023/10/21 06:54:24;;;;;;;1.55;0.77;;;;;;;19.88;73.31;98211.66;4483301;32;33938;-79
2023/10/21 06:56:56;;;;;;;3.30;1.62;;;;;;;19.69;74.36;98211.34;4482272;32;33028;-77
2023/10/21 06:59:25;;;;;;;3.87;1.02;;;;;;;19.78;73.72;98224.66;4479036;32;33539;-78
2023/10/21 07:01:58;;;;;;;1.80;0.65;;;;;;;19.80;73.75;98227.19;4477591;32;34684;-76
2023/10/21 07:04:27;;;;;;;1.70;1.60;;;;;;;19.60;74.81;98226.84;4462379;32;33347;-78
2023/10/21 07:07:00;;;;;;;2.42;0.82;;;;;;;19.65;74.72;98238.84;4467498;32;34262;-78
2023/10/21 07:09:30;;;;;;;1.77;0.77;;;;;;;19.79;74.01;98226.38;4464957;32;33852;-78
2023/10/21 07:12:00;;;;;;;1.25;1.05;;;;;;;19.82;73.84;98226.13;4467294;32;34211;-76
2023/10/21 07:14:30;;;;;;;2.45;1.00;;;;;;;19.76;74.08;98223.09;4475877;32;33109;-76
2023/10/21 07:17:02;;;;;;;3.75;1.20;;;;;;;19.69;74.30;98230.63;4476327;32;33442;-76
2023/10/21 07:19:31;;;;;;;1.10;0.62;;;;;;;19.76;73.86;98233.63;4483385;32;34390;-76
2023/10/21 07:22:02;;;;;;;4.70;0.85;;;;;;;19.82;73.33;98226.13;4477672;32;34643;-75
2023/10/21 07:24:32;;;;;;;2.33;1.42;;;;;;;19.81;73.40;98226.22;4477797;32;34001;-76
2023/10/21 07:27:05;;;;;;;1.60;0.90;;;;;;;19.78;73.47;98240.47;4480228;32;32963;-76
2023/10/21 07:29:34;;;;;;;1.35;1.25;;;;;;;19.79;73.43;98250.03;4478762;32;33580;-77
2023/10/21 07:32:05;;;;;;;3.97;1.15;;;;;;;19.81;73.46;98265.69;4462547;32;34002;-77
2023/10/21 07:34:34;;;;;;;1.65;0.70;;;;;;;19.79;73.18;98280.78;4466483;31;33458;-75
2023/10/21 07:37:05;;;;;;;2.70;0.70;;;;;;;19.65;73.53;98278.28;4460837;32;33749;-77
2023/10/21 07:39:34;;;;;;;2.22;0.45;;;;;;;19.61;73.93;98270.59;4464811;32;33360;-75
2023/10/21 07:42:09;;;;;;;1.73;0.90;;;;;;;19.53;74.12;98267.72;4469388;32;33738;-75
2023/10/21 07:44:38;;;;;;;2.62;0.82;;;;;;;19.64;73.98;98271.34;4480277;31;33500;-75
2023/10/21 07:47:11;;;;;;;4.90;0.88;;;;;;;19.60;73.83;98279.47;4471752;32;32983;-77
2023/10/21 07:49:42;;;;;;;1.70;0.95;;;;;;;19.58;73.65;98284.00;4465721;32;34323;-77
2023/10/21 07:52:12;;;;;;;8.32;1.30;;;;;;;19.54;73.66;98298.31;4469301;32;33538;-75
2023/10/21 07:54:41;;;;;;;2.23;0.87;;;;;;;19.74;72.96;98296.06;4467301;32;33737;-74
2023/10/21 07:57:14;;;;;;;1.50;0.68;;;;;;;19.53;73.36;98301.06;4468968;32;34064;-77
2023/10/21 07:59:42;;;;;;;4.25;1.15;;;;;;;19.61;72.98;98299.53;4467259;32;34286;-74
2023/10/21 08:02:15;;;;;;;0.82;0.60;;;;;;;19.61;72.96;98294.28;4462792;32;33922;-77
2023/10/21 08:04:44;;;;;;;0.90;0.60;;;;;;;19.60;73.03;98308.41;4468951;32;34087;-77
2023/10/21 08:07:16;;;;;;;5.47;0.85;;;;;;;19.67;72.51;98307.94;4469628;31;32236;-76
2023/10/21 08:09:45;;;;;;;1.73;0.60;;;;;;;19.73;72.30;98316.25;4466283;32;34832;-75
2023/10/21 08:12:19;;;;;;;0.40;0.40;;;;;;;19.77;72.06;98330.06;4467619;31;34359;-76
2023/10/21 08:14:48;;;;;;;0.52;0.52;;;;;;;19.60;73.09;98329.44;4482432;31;34251;-77
2023/10/21 08:17:20;;;;;;;1.92;0.95;;;;;;;19.72;72.76;98343.53;4474405;31;33768;-75
2023/10/21 08:19:49;;;;;;;3.80;0.65;;;;;;;19.75;72.41;98353.84;4475743;31;33512;-76
2023/10/21 08:22:18;;;;;;;1.25;0.55;;;;;;;19.76;72.73;98347.63;4465634;32;35063;-77
2023/10/21 08:24:47;;;;;;;0.85;0.50;;;;;;;19.77;73.08;98354.56;4483012;31;34948;-77
2023/10/21 08:27:18;;;;;;;1.90;1.27;;;;;;;19.68;72.89;98364.91;4499114;31;33064;-77
2023/10/21 08:29:48;;;;;;;2.28;0.82;;;;;;;19.85;72.46;98367.16;4490790;31;34597;-77
2023/10/21 08:32:20;;;;;;;1.33;0.65;;;;;;;19.82;72.20;98362.97;4477160;32;34015;-77
2023/10/21 08:34:49;;;;;;;6.68;0.88;;;;;;;19.65;72.84;98373.84;4474508;32;33435;-77
2023/10/21 08:37:25;;;;;;;1.92;1.35;;;;;;;19.93;71.58;98367.44;4468167;32;33542;-76
2023/10/21 08:39:56;;;;;;;0.85;0.37;;;;;;;20.10;71.01;98368.84;4473281;32;33319;-75
2023/10/21 08:42:27;;;;;;;1.23;0.57;;;;;;;19.86;72.08;98354.84;4461637;32;34115;-75
2023/10/21 08:45:19;;;;;;;2.47;0.60;;;;;;;19.96;71.61;98351.44;4466993;32;33409;-78
2023/10/21 08:47:51;;;;;;;0.30;0.30;;;;;;;19.94;71.72;98347.25;4463905;32;33103;-76
2023/10/21 08:50:20;;;;;;;1.02;0.47;;;;;;;20.01;71.40;98345.84;4461665;32;34441;-75
2023/10/21 08:52:54;;;;;;;0.75;0.57;;;;;;;19.92;71.58;98354.41;4467382;32;33464;-75
2023/10/21 08:55:23;;;;;;;3.50;0.60;;;;;;;20.13;71.24;98363.37;4461327;32;33910;-77
2023/10/21 08:57:54;;;;;;;0.40;0.40;;;;;;;20.17;70.62;98364.81;4483513;31;33033;-77
2023/10/21 09:00:23;;;;;;;0.30;0.30;;;;;;;20.02;70.95;98372.03;4478455;32;34144;-75
2023/10/21 09:02:55;;;;;;;3.67;1.25;;;;;;;20.01;71.01;98377.44;4482892;32;34224;-76
2023/10/21 09:05:25;;;;;;;0.65;0.45;;;;;;;20.16;70.43;98394.75;4477031;32;33557;-77
2023/10/21 09:07:58;;;;;;;0.80;0.40;;;;;;;19.94;71.42;98399.91;4476176;32;32837;-76
2023/10/21 09:10:27;;;;;;;0.30;0.30;;;;;;;19.86;71.59;98407.47;4472848;32;34529;-75
2023/10/21 09:13:17;;;;;;;2.75;1.58;;;;;;;19.85;71.94;98396.12;4476339;32;33628;-76
2023/10/21 09:15:47;;;;;;;1.02;0.40;;;;;;;20.17;70.65;98399.03;4488820;31;34799;-77
2023/10/21 09:18:20;;;;;;;2.25;0.40;;;;;;;20.11;70.83;98411.84;4467054;32;34007;-76
2023/10/21 09:20:50;;;;;;;0.75;0.52;;;;;;;19.86;71.49;98418.88;4477130;32;33475;-76
2023/10/21 09:23:26;;;;;;;1.00;0.35;;;;;;;20.09;70.93;98425.09;4477917;32;33577;-75
2023/10/21 09:25:55;;;;;;;1.67;0.85;;;;;;;20.12;71.00;98430.13;4476618;32;33992;-76
2023/10/21 09:28:25;;;;;;;0.80;0.47;;;;;;;19.91;71.92;98431.69;4472179;32;33887;-76
2023/10/21 09:30:58;;;;;;;2.73;0.50;;;;;;;20.02;71.83;98421.22;4465346;32;34168;-75
2023/10/21 09:33:54;;;;;;;1.73;0.50;;;;;;;19.81;73.28;98402.53;4473111;32;34774;-76
2023/10/21 09:36:23;;;;;;;0.60;0.35;;;;;;;19.82;73.82;98393.72;4467949;32;34066;-78
2023/10/21 09:38:58;;;;;;;1.55;1.35;;;;;;;19.98;73.26;98391.66;4464178;32;34087;-74
2023/10/21 09:41:28;;;;;;;1.45;0.60;;;;;;;19.98;73.23;98399.56;4471819;32;34517;-76
2023/10/21 09:44:03;;;;;;;0.50;0.50;;;;;;;19.96;73.30;98401.47;4461980;32;33995;-75
2023/10/21 09:46:34;;;;;;;0.98;0.75;;;;;;;19.89;74.45;98407.28;4461143;32;34072;-75
2023/10/21 09:49:05;;;;;;;0.85;0.52;;;;;;;20.02;73.48;98406.25;4468127;32;34031;-75
2023/10/21 09:51:37;;;;;;;0.40;0.40;;;;;;;20.19;72.34;98398.94;4463151;32;35430;-77
2023/10/21 09:54:16;;;;;;;1.10;0.40;;;;;;;20.15;72.75;98400.97;4467006;32;34273;-77
2023/10/21 09:56:46;;;;;;;1.60;0.50;;;;;;;19.99;72.81;98397.75;4463478;32;33604;-78
2023/10/21 09:59:19;;;;;;;1.55;0.57;;;;;;;20.12;72.30;98405.59;4471661;32;32926;-76
2023/10/21 10:01:48;;;;;;;0.40;0.40;;;;;;;20.24;71.68;98417.88;4462595;32;33442;-76
2023/10/21 10:04:21;;;;;;;1.00;0.50;;;;;;;20.27;71.70;98417.63;4467097;32;34782;-77
2023/10/21 10:07:06;;;;;;;3.35;0.60;;;;;;;20.31;72.37;98419.09;4465552;32;34276;-78
2023/10/21 10:09:42;;;;;;;2.20;0.35;;;;;;;20.58;70.09;98425.94;4464104;32;33836;-75
2023/10/21 10:12:17;;;;;;;0.73;0.35;;;;;;;20.58;70.45;98405.69;4473842;31;34056;-75
2023/10/21 10:14:48;;;;;;;1.67;0.75;;;;;;;20.55;71.00;98408.56;4488359;31;33812;-76
2023/10/21 10:17:50;;;;;;;1.75;0.95;;;;;;;20.80;69.30;98404.09;4469282;32;35826;-76
2023/10/21 10:20:22;;;;;;;1.77;0.30;;;;;;;20.89;69.88;98383.13;4463938;32;33217;-75
2023/10/21 10:22:58;;;;;;;0.40;0.40;;;;;;;21.05;68.34;98374.91;4465803;32;34239;-78
2023/10/21 10:25:39;;;;;;;1.62;0.43;;;;;;;21.01;68.51;98368.19;4462293;32;33819;-76
2023/10/21 10:28:10;;;;;;;2.60;1.45;;;;;;;21.19;67.90;98372.97;4464554;32;33602;-77
2023/10/21 10:30:49;;;;;;;0.75;0.35;;;;;;;21.12;68.22;98377.06;4462412;32;33779;-76
2023/10/21 10:33:22;;;;;;;2.05;0.70;;;;;;;21.12;68.42;98377.06;4468002;32;33441;-76
2023/10/21 10:35:52;;;;;;;2.70;1.30;;;;;;;21.40;66.96;98379.25;4483838;32;33780;-76
2023/10/21 10:38:27;;;;;;;1.12;0.80;;;;;;;21.28;67.93;98361.72;4477956;32;33261;-77
2023/10/21 10:41:06;;;;;;;1.45;0.57;;;;;;;21.42;66.61;98358.88;4477664;32;33519;-76
2023/10/21 10:43:36;;;;;;;1.23;0.50;;;;;;;21.29;67.64;98353.69;4477253;32;33654;-76
2023/10/21 10:46:12;;;;;;;5.37;0.45;;;;;;;21.23;67.27;98348.88;4465613;32;34883;-75
2023/10/21 10:48:42;;;;;;;0.80;0.45;;;;;;;21.19;67.61;98354.53;4467761;32;34146;-75
2023/10/21 10:51:15;;;;;;;1.05;0.43;;;;;;;21.33;67.63;98369.28;4463644;32;33814;-76
2023/10/21 10:53:55;;;;;;;1.92;0.65;;;;;;;21.36;67.14;98377.81;4462159;32;33162;-77
2023/10/21 10:58:59;;;;;;;2.42;0.95;;;;;;;21.18;67.97;98379.22;4463433;32;34421;-78
2023/10/21 11:01:33;;;;;;;2.17;0.70;;;;;;;21.24;67.70;98394.59;4467737;32;34241;-75
2023/10/21 11:04:03;;;;;;;0.73;0.50;;;;;;;21.34;67.87;98392.91;4462181;32;34101;-77
2023/10/21 11:06:34;;;;;;;1.53;0.93;;;;;;;21.39;67.70;98384.63;4462958;32;33594;-77
2023/10/21 11:09:05;;;;;;;2.25;0.70;;;;;;;21.26;67.85;98376.81;4462525;32;33363;-78
2023/10/21 11:11:46;;;;;;;2.47;1.60;;;;;;;21.41;67.29;98383.59;4468170;32;33985;-78
2023/10/21 11:14:38;;;;;;;2.00;0.60;;;;;;;21.35;67.78;98399.00;4467580;32;34362;-76
2023/10/21 11:17:10;;;;;;;3.83;0.47;;;;;;;21.62;66.78;98411.88;4462416;32;33622;-76
2023/10/21 11:19:39;;;;;;;1.85;0.93;;;;;;;21.68;66.48;98421.94;4464533;32;34589;-78
2023/10/21 11:22:25;;;;;;;3.00;0.90;;;;;;;21.67;66.07;98420.25;4462335;32;33757;-77
2023/10/21 11:24:54;;;;;;;0.98;0.70;;;;;;;21.57;66.79;98420.12;4462096;32;34369;-76
2023/10/21 11:27:26;;;;;;;2.15;1.08;;;;;;;21.60;66.78;98414.63;4467566;32;33639;-77
2023/10/21 11:29:56;;;;;;;3.12;0.93;;;;;;;21.61;67.31;98418.94;4467058;32;33736;-78
2023/10/21 11:32:28;;;;;;;2.03;0.57;;;;;;;21.32;67.05;98423.84;4462041;32;33577;-75
2023/10/21 11:35:09;;;;;;;0.75;0.57;;;;;;;21.48;67.15;98421.72;4461621;32;33462;-76
2023/10/21 11:37:39;;;;;;;1.12;0.52;;;;;;;21.66;66.06;98429.97;4464416;32;34067;-76
2023/10/21 11:40:10;;;;;;;1.58;0.50;;;;;;;21.71;65.96;98433.09;4467780;32;33965;-76
2023/10/21 11:42:39;;;;;;;4.43;0.80;;;;;;;21.54;65.77;98445.94;4461801;32;33516;-76
2023/10/21 11:45:14;;;;;;;0.50;0.40;;;;;;;21.62;65.09;98449.66;4461613;32;33885;-78
2023/10/21 11:47:44;;;;;;;0.82;0.40;;;;;;;21.74;65.02;98455.75;4478757;32;34112;-80
2023/10/21 11:50:13;;;;;;;1.77;0.43;;;;;;;21.85;64.37;98463.69;4482826;32;34463;-78
2023/10/21 11:52:44;;;;;;;1.40;0.50;;;;;;;21.80;64.31;98460.56;4480523;32;34718;-76
2023/10/21 11:55:38;;;;;;;2.87;0.85;;;;;;;21.82;64.04;98463.06;4471676;32;35301;-77
2023/10/21 12:24:35;;;;;;;2.20;0.88;;;;;;;21.68;62.44;98488.75;4385089;32;33741;-76